CYLWCYXX

Guest
Details From CYLW - Kelowna
To CYXX - Abbotsford
Flight Number -
Tags generated
Created
Modified
Stats Distance 129 nm / 240 km
Max Altitude 9,200 ft / 2,804 m
Waypoints 3
Social Downloads 0
Likes 0
Share VATSIM

Download

Looking for another format? Having issues loading an existing format? Contact us
Advertisement - Login to hide

Notes

Basic altitude profile: - Ascent Rate: 2500ft/min - Ascent Speed: 250kts - Cruise Altitude: 35000ft - Cruise Speed: 420kts - Descent Rate: 1500ft/min - Descent Speed: 250kts Options: - Use NATs: yes - Use PACOTS: yes - Use low airways: yes - Use high airways: yes

Route

CYLW PNASK CYXX

ID Type Via Altitude Latitude Longitude Leg Dist Tot Dist Heading (true) Name
O CYLW APT - 0 ft / 0 m 49.95612˚ -119.37776˚ - 0 nm - Kelowna
PNASK FIX - 9,200 ft / 2,804 m 49.75667˚ -119.96778˚ 25 nm 25 nm 243° / 242° -
O CYXX APT - 0 ft / 0 m 49.02442˚ -122.36891˚ 103 nm 129 nm 246° / 244° Abbotsford

Altitude Profile

Advertisement - Login to hide

CYLW

Details ICAO CYLW (YLW)
Name Kelowna
Region Canada
Timezone America/Vancouver (UTC-8.0)
Stats Elevation 1,409 ft / 429 m (AMSL)
Location 49.956117° -119.377757°
Runways 1
Magnetic Variation 15.634° E

METAR

CYLW 131500Z AUTO 00000KT 8SM BKN014 OVC046 M02/M03 A3055 RMK SLP368

Decode

TAF

TAF CYLW 131238Z 1313/1401 VRB03KT P6SM OVC040 TEMPO 1313/1401 BKN020 OVC040 RMK FCST BASED ON AUTO OBS. NXT FCST BY 131900Z

Decode

Departure Runways

ID Width Length Bearing (true) Bearing (mag) Surface Threshold Offset Overrun Length
16 200 ft / 61 m 7,299 ft / 2,225 m 174.89° 159.26° Asphalt 0 ft / 0 m 0 ft / 0 m
34 200 ft / 61 m 7,299 ft / 2,225 m 354.89° 339.26° Asphalt 0 ft / 0 m 0 ft / 0 m

CYXX

Details ICAO CYXX (YXX)
Name Abbotsford
Region Canada
Timezone America/Vancouver (UTC-8.0)
Stats Elevation 189 ft / 58 m (AMSL)
Location 49.024424° -122.368913°
Runways 3
Magnetic Variation 16.078° E

METAR

CYXX 131500Z 32004KT 260V320 30SM FEW250 M00/M01 A3045 RMK CI1 SLP314

Decode

TAF

TAF CYXX 131138Z 1312/1412 34005KT P6SM FEW100 FEW240 BECMG 1316/1318 04005KT RMK NXT FCST BY 131800Z

Decode

Destination Runways

ID Width Length Bearing (true) Bearing (mag) Surface Threshold Offset Overrun Length
01 200 ft / 61 m 5,263 ft / 1,604 m 25.71° 9.63° Asphalt 249 ft / 76 m 0 ft / 0 m
01L 95 ft / 29 m 1,480 ft / 451 m 25.01° 8.93° Grass 0 ft / 0 m 0 ft / 0 m
07 200 ft / 61 m 9,576 ft / 2,919 m 85.76° 69.68° Asphalt 0 ft / 0 m 0 ft / 0 m
19 200 ft / 61 m 5,263 ft / 1,604 m 205.72° 189.64° Asphalt 0 ft / 0 m 0 ft / 0 m
19R 95 ft / 29 m 1,480 ft / 451 m 205.01° 188.93° Grass 0 ft / 0 m 0 ft / 0 m
25 200 ft / 61 m 9,576 ft / 2,919 m 265.79° 249.71° Asphalt 430 ft / 131 m 0 ft / 0 m

Approach Navaids

Runway Type Ident Frequency Range Bearing (true) Bearing (mag) Slope Elevation
07 Localiser IXX 109.70 MHz 18 nm / 33 km 85.78° 69.70° - 187 ft / 57 m (AMSL)
07 Glidescope IXX 109.70 MHz 10 nm / 19 km 85.78° 69.70° 3.00° 170 ft / 52 m (AMSL)